Time,TemperatureF,DewpointF,PressureIn,WindDirection,WindDirectionDegrees,WindSpeedMPH,WindSpeedGustMPH,Humidity,HourlyPrecipIn,Conditions,Clouds,dailyrainin,SoftwareType,DateUTC
2013-08-12 00:01:00,63.7,62.2,29.92,ENE,66,0.0,0.0,95,0.00,,---,0.00,VWS V14.01,2013-08-12 05:01:00,
2013-08-12 00:11:00,63.5,62.0,29.92,ENE,66,0.0,0.0,95,0.00,,---,0.00,VWS V14.01,2013-08-12 05:11:00,
2013-08-12 00:21:00,63.2,61.8,29.91,ENE,66,0.0,0.0,95,0.00,,---,0.00,VWS V14.01,2013-08-12 05:21:00,
2013-08-12 00:26:00,63.1,61.7,29.91,ENE,66,0.0,0.0,95,0.00,,---,0.00,VWS V14.01,2013-08-12 05:26:00,
2013-08-12 00:31:00,62.9,61.5,29.92,ENE,66,0.0,0.0,95,0.00,,---,0.00,VWS V14.01,2013-08-12 05:31:00,
2013-08-12 00:36:00,62.7,61.2,29.91,ENE,66,0.0,0.0,95,0.00,,---,0.00,VWS V14.01,2013-08-12 05:36:00,
2013-08-12 00:41:00,62.7,61.2,29.92,ENE,66,0.0,0.0,95,0.00,,---,0.00,VWS V14.01,2013-08-12 05:41:00,
2013-08-12 00:46:00,62.6,61.2,29.92,ENE,67,0.0,0.0,95,0.00,,---,0.00,VWS V14.01,2013-08-12 05:46:00,
2013-08-12 00:51:00,62.6,61.2,29.92,ENE,66,0.0,0.0,95,0.00,,---,0.00,VWS V14.01,2013-08-12 05:51:00,
2013-08-12 01:01:00,62.3,60.8,29.92,ENE,66,0.0,0.0,95,0.00,,---,0.00,VWS V14.01,2013-08-12 06:01:00,
2013-08-12 01:06:00,62.1,60.7,29.92,ENE,66,0.0,0.0,95,0.00,,---,0.00,VWS V14.01,2013-08-12 06:06:00,
2013-08-12 01:11:00,62.0,60.6,29.92,ENE,66,0.0,0.0,95,0.00,,---,0.00,VWS V14.01,2013-08-12 06:11:00,
2013-08-12 01:16:00,62.0,60.6,29.92,ENE,66,0.0,0.0,95,0.00,,---,0.00,VWS V14.01,2013-08-12 06:16:00,
2013-08-12 01:21:00,61.8,60.4,29.92,ENE,66,0.0,0.0,95,0.00,,---,0.00,VWS V14.01,2013-08-12 06:21:00,
2013-08-12 01:26:00,61.8,60.4,29.92,ENE,66,0.0,0.0,95,0.00,,---,0.00,VWS V14.01,2013-08-12 06:26:00,
2013-08-12 01:31:00,61.8,60.4,29.92,ENE,66,0.0,0.0,95,0.00,,---,0.00,VWS V14.01,2013-08-12 06:31:00,
2013-08-12 01:36:00,61.8,60.7,29.92,ENE,66,0.0,0.0,96,0.00,,---,0.00,VWS V14.01,2013-08-12 06:36:00,
2013-08-12 01:46:00,61.8,60.7,29.92,ENE,66,0.0,0.0,96,0.00,,---,0.00,VWS V14.01,2013-08-12 06:46:00,
2013-08-12 01:51:00,61.6,60.5,29.92,ENE,66,0.0,0.0,96,0.00,,---,0.00,VWS V14.01,2013-08-12 06:51:00,
2013-08-12 02:01:00,61.5,60.3,29.92,ENE,66,0.0,0.0,96,0.00,,---,0.00,VWS V14.01,2013-08-12 07:01:00,
2013-08-12 02:06:00,61.5,60.3,29.91,ENE,66,0.0,0.0,96,0.00,,---,0.00,VWS V14.01,2013-08-12 07:06:00,
2013-08-12 02:11:00,61.3,60.2,29.91,ENE,66,0.0,0.0,96,0.00,,---,0.00,VWS V14.01,2013-08-12 07:11:00,
2013-08-12 02:16:00,61.2,60.0,29.92,ENE,66,0.0,0.0,96,0.00,,---,0.00,VWS V14.01,2013-08-12 07:16:00,
2013-08-12 02:26:00,61.0,59.9,29.91,ENE,67,0.0,0.0,96,0.00,,---,0.00,VWS V14.01,2013-08-12 07:26:00,
2013-08-12 02:31:00,61.0,59.9,29.91,ENE,66,0.0,0.0,96,0.00,,---,0.00,VWS V14.01,2013-08-12 07:31:00,
2013-08-12 02:36:00,60.9,59.8,29.91,ENE,66,0.0,0.0,96,0.00,,---,0.00,VWS V14.01,2013-08-12 07:36:00,
2013-08-12 02:41:00,60.7,59.6,29.91,ENE,66,0.0,0.0,96,0.00,,---,0.00,VWS V14.01,2013-08-12 07:41:00,
2013-08-12 02:46:00,60.7,59.6,29.91,ENE,66,0.0,0.0,96,0.00,,---,0.00,VWS V14.01,2013-08-12 07:46:00,
2013-08-12 02:56:00,60.5,59.4,29.90,ENE,66,0.0,0.0,96,0.00,,---,0.00,VWS V14.01,2013-08-12 07:56:00,
2013-08-12 03:01:00,60.4,59.3,29.91,ENE,66,0.0,0.0,96,0.00,,---,0.00,VWS V14.01,2013-08-12 08:01:00,
2013-08-12 03:06:00,60.4,59.3,29.92,ENE,66,0.0,0.0,96,0.00,,---,0.00,VWS V14.01,2013-08-12 08:06:00,
2013-08-12 03:11:00,60.4,59.3,29.91,ENE,66,0.0,0.0,96,0.00,,---,0.00,VWS V14.01,2013-08-12 08:11:00,
2013-08-12 03:16:00,60.4,59.3,29.91,ENE,66,0.0,0.0,96,0.00,,---,0.00,VWS V14.01,2013-08-12 08:16:00,
2013-08-12 03:21:00,60.1,59.0,29.92,ENE,66,0.0,0.0,96,0.00,,---,0.00,VWS V14.01,2013-08-12 08:21:00,
2013-08-12 03:26:00,59.9,58.8,29.92,ENE,66,0.0,0.0,96,0.00,,---,0.00,VWS V14.01,2013-08-12 08:26:00,
2013-08-12 03:36:00,59.6,58.5,29.92,ENE,66,0.0,0.0,96,0.00,,---,0.00,VWS V14.01,2013-08-12 08:36:00,
2013-08-12 03:41:00,59.6,58.5,29.92,ENE,66,0.0,0.0,96,0.00,,---,0.00,VWS V14.01,2013-08-12 08:41:00,
2013-08-12 03:51:00,59.3,58.2,29.91,ENE,66,0.0,0.0,96,0.00,,---,0.00,VWS V14.01,2013-08-12 08:51:00,
2013-08-12 04:01:00,59.0,57.9,29.91,ENE,66,0.0,0.0,96,0.00,,---,0.00,VWS V14.01,2013-08-12 09:01:00,
2013-08-12 04:06:00,59.0,57.9,29.91,ENE,66,0.0,0.0,96,0.00,,---,0.00,VWS V14.01,2013-08-12 09:06:00,
2013-08-12 04:16:00,58.9,57.8,29.91,ENE,66,0.0,0.0,96,0.00,,---,0.00,VWS V14.01,2013-08-12 09:16:00,
2013-08-12 04:21:00,58.9,57.8,29.91,ENE,66,0.0,0.0,96,0.00,,---,0.00,VWS V14.01,2013-08-12 09:21:00,
2013-08-12 04:26:00,58.9,57.8,29.91,ENE,66,0.0,0.0,96,0.00,,---,0.00,VWS V14.01,2013-08-12 09:26:00,
2013-08-12 04:36:00,59.0,57.9,29.91,ENE,66,0.0,0.0,96,0.00,,---,0.00,VWS V14.01,2013-08-12 09:36:00,
2013-08-12 04:46:00,58.9,57.8,29.91,ENE,66,0.0,0.0,96,0.00,,---,0.00,VWS V14.01,2013-08-12 09:46:00,
2013-08-12 04:51:00,58.9,57.8,29.91,ENE,66,0.0,0.0,96,0.00,,---,0.00,VWS V14.01,2013-08-12 09:51:00,
2013-08-12 04:56:00,58.7,57.6,29.92,ENE,66,0.0,0.0,96,0.00,,---,0.00,VWS V14.01,2013-08-12 09:56:00,
2013-08-12 05:01:00,58.6,57.5,29.92,ENE,66,0.0,0.0,96,0.00,,---,0.00,VWS V14.01,2013-08-12 10:01:00,
2013-08-12 05:06:00,58.4,57.3,29.92,ENE,66,0.0,0.0,96,0.00,,---,0.00,VWS V14.01,2013-08-12 10:06:00,
2013-08-12 05:16:00,58.4,57.3,29.92,ENE,66,0.0,0.0,96,0.00,,---,0.00,VWS V14.01,2013-08-12 10:16:00,
2013-08-12 05:21:00,58.3,57.2,29.92,ENE,66,0.0,0.0,96,0.00,,---,0.00,VWS V14.01,2013-08-12 10:21:00,
2013-08-12 05:31:00,58.0,56.9,29.92,ENE,66,0.0,0.0,96,0.00,,---,0.00,VWS V14.01,2013-08-12 10:31:00,
2013-08-12 05:36:00,57.8,56.7,29.92,ENE,66,0.0,0.0,96,0.00,,---,0.00,VWS V14.01,2013-08-12 10:36:00,
2013-08-12 05:41:00,57.6,56.5,29.92,ENE,66,0.0,0.0,96,0.00,,---,0.00,VWS V14.01,2013-08-12 10:41:00,
2013-08-12 05:51:00,57.3,56.2,29.92,ENE,66,0.0,0.0,96,0.00,,---,0.00,VWS V14.01,2013-08-12 10:51:00,
2013-08-12 05:56:00,57.3,56.2,29.92,ENE,66,0.0,0.0,96,0.00,,---,0.00,VWS V14.01,2013-08-12 10:56:00,
2013-08-12 06:06:00,57.2,56.1,29.92,ENE,66,0.0,0.0,96,0.00,,---,0.00,VWS V14.01,2013-08-12 11:06:00,
2013-08-12 06:11:00,57.0,55.9,29.92,ENE,66,0.0,0.0,96,0.00,,---,0.00,VWS V14.01,2013-08-12 11:11:00,
2013-08-12 06:16:00,57.0,55.9,29.92,ENE,66,0.0,0.0,96,0.00,,---,0.00,VWS V14.01,2013-08-12 11:16:00,
2013-08-12 06:21:00,57.3,56.2,29.92,ENE,66,0.0,0.0,96,0.00,,---,0.00,VWS V14.01,2013-08-12 11:21:00,
2013-08-12 06:26:00,57.3,56.2,29.92,ENE,66,0.0,0.0,96,0.00,,---,0.00,VWS V14.01,2013-08-12 11:26:00,
2013-08-12 06:36:00,57.0,55.9,29.92,ENE,66,0.0,0.0,96,0.00,,---,0.00,VWS V14.01,2013-08-12 11:36:00,
2013-08-12 06:41:00,56.9,55.8,29.92,ENE,66,0.0,0.0,96,0.00,,---,0.00,VWS V14.01,2013-08-12 11:41:00,
2013-08-12 06:46:00,56.9,55.8,29.92,ENE,66,0.0,0.0,96,0.00,,---,0.00,VWS V14.01,2013-08-12 11:46:00,
2013-08-12 06:56:00,57.0,55.9,29.92,ENE,66,0.0,0.0,96,0.00,,---,0.00,VWS V14.01,2013-08-12 11:56:00,
2013-08-12 07:01:00,57.0,55.9,29.92,ENE,66,0.0,0.0,96,0.00,,---,0.00,VWS V14.01,2013-08-12 12:01:00,
2013-08-12 07:11:00,57.6,56.8,29.92,ENE,66,0.0,0.0,97,0.00,,---,0.00,VWS V14.01,2013-08-12 12:11:00,
2013-08-12 07:16:00,58.1,57.3,29.92,ENE,66,0.0,0.0,97,0.00,,---,0.00,VWS V14.01,2013-08-12 12:16:00,
2013-08-12 07:21:00,58.4,57.6,29.92,ENE,66,0.0,0.0,97,0.00,,---,0.00,VWS V14.01,2013-08-12 12:21:00,
2013-08-12 07:26:00,58.9,58.0,29.92,ENE,66,0.0,0.0,97,0.00,,---,0.00,VWS V14.01,2013-08-12 12:26:00,
2013-08-12 07:36:00,59.5,58.7,29.92,ENE,66,0.0,0.0,97,0.00,,---,0.00,VWS V14.01,2013-08-12 12:36:00,
2013-08-12 07:41:00,59.6,58.8,29.92,ENE,66,0.0,0.0,97,0.00,,---,0.00,VWS V14.01,2013-08-12 12:41:00,
2013-08-12 07:51:00,60.2,59.3,29.92,ENE,66,0.0,0.0,97,0.00,,---,0.00,VWS V14.01,2013-08-12 12:51:00,
2013-08-12 07:56:00,60.5,59.7,29.92,ENE,66,0.0,0.0,97,0.00,,---,0.00,VWS V14.01,2013-08-12 12:56:00,
2013-08-12 08:01:00,61.0,60.2,29.92,ENE,66,0.0,0.0,97,0.00,,---,0.00,VWS V14.01,2013-08-12 13:01:00,
2013-08-12 08:06:00,61.5,60.6,29.92,ENE,66,0.0,0.0,97,0.00,,---,0.00,VWS V14.01,2013-08-12 13:06:00,
2013-08-12 08:11:00,62.0,61.1,29.93,ENE,67,0.0,0.0,97,0.00,,---,0.00,VWS V14.01,2013-08-12 13:11:00,
2013-08-12 08:16:00,62.4,61.5,29.93,ENE,66,0.0,0.0,97,0.00,,---,0.00,VWS V14.01,2013-08-12 13:16:00,
2013-08-12 08:21:00,63.2,62.6,29.93,ENE,58,0.0,0.0,98,0.00,,---,0.00,VWS V14.01,2013-08-12 13:21:00,
2013-08-12 08:31:00,65.2,64.6,29.93,NNE,24,0.0,0.0,98,0.00,,---,0.00,VWS V14.01,2013-08-12 13:31:00,
2013-08-12 08:41:00,66.3,65.7,29.93,North,351,0.0,0.0,98,0.00,,---,0.00,VWS V14.01,2013-08-12 13:41:00,
2013-08-12 08:51:00,67.4,66.5,29.93,North,349,0.0,0.0,97,0.00,,---,0.00,VWS V14.01,2013-08-12 13:51:00,
2013-08-12 08:56:00,67.9,67.0,29.93,NNW,344,0.0,0.0,97,0.00,,---,0.00,VWS V14.01,2013-08-12 13:56:00,
2013-08-12 09:01:00,68.3,67.4,29.93,North,350,0.0,0.0,97,0.00,,---,0.00,VWS V14.01,2013-08-12 14:01:00,
2013-08-12 09:06:00,68.8,67.9,29.93,North,355,0.0,0.0,97,0.00,,---,0.00,VWS V14.01,2013-08-12 14:06:00,
2013-08-12 09:16:00,69.3,68.4,29.93,NNE,12,0.0,0.0,97,0.00,,---,0.00,VWS V14.01,2013-08-12 14:16:00,
2013-08-12 09:21:00,69.4,68.2,29.93,North,355,0.0,0.0,96,0.00,,---,0.00,VWS V14.01,2013-08-12 14:21:00,
2013-08-12 09:31:00,69.9,68.7,29.93,North,355,0.0,0.0,96,0.00,,---,0.00,VWS V14.01,2013-08-12 14:31:00,
2013-08-12 09:36:00,70.1,68.6,29.93,NNW,341,0.0,0.0,95,0.00,,---,0.00,VWS V14.01,2013-08-12 14:36:00,
2013-08-12 09:41:00,70.6,68.8,29.93,North,360,0.0,0.0,94,0.00,,---,0.00,VWS V14.01,2013-08-12 14:41:00,
2013-08-12 09:46:00,71.1,68.7,29.93,North,350,0.0,0.0,92,0.00,,---,0.00,VWS V14.01,2013-08-12 14:46:00,
2013-08-12 09:51:00,71.8,69.3,29.93,North,5,0.0,0.0,92,0.00,,---,0.00,VWS V14.01,2013-08-12 14:51:00,
2013-08-12 10:01:00,73.0,69.2,29.93,North,355,0.0,0.0,88,0.00,,---,0.00,VWS V14.01,2013-08-12 15:01:00,
2013-08-12 10:11:00,74.2,68.7,29.94,NNE,17,0.0,0.0,83,0.00,,---,0.00,VWS V14.01,2013-08-12 15:11:00,
2013-08-12 10:16:00,74.7,68.5,29.93,NNE,13,0.0,1.0,81,0.00,,---,0.00,VWS V14.01,2013-08-12 15:16:00,
2013-08-12 10:26:00,75.6,68.6,29.94,North,5,0.0,0.0,79,0.00,,---,0.00,VWS V14.01,2013-08-12 15:26:00,
2013-08-12 10:31:00,76.1,69.1,29.94,NNE,14,0.0,0.0,79,0.00,,---,0.00,VWS V14.01,2013-08-12 15:31:00,
2013-08-12 10:41:00,76.7,68.6,29.93,NE,35,0.0,0.0,76,0.00,,---,0.00,VWS V14.01,2013-08-12 15:41:00,
2013-08-12 10:46:00,77.0,68.5,29.93,North,355,0.0,0.0,75,0.00,,---,0.00,VWS V14.01,2013-08-12 15:46:00,
2013-08-12 10:56:00,76.7,67.0,29.94,North,355,0.0,2.0,72,0.00,,---,0.00,VWS V14.01,2013-08-12 15:56:00,
2013-08-12 11:06:00,77.0,67.3,29.94,NNE,24,0.0,0.0,72,0.00,,---,0.00,VWS V14.01,2013-08-12 16:06:00,
2013-08-12 11:16:00,77.7,67.1,29.94,North,351,0.0,0.0,70,0.00,,---,0.00,VWS V14.01,2013-08-12 16:16:00,
2013-08-12 11:26:00,78.3,66.9,29.94,NNW,340,2.0,2.0,68,0.00,,---,0.00,VWS V14.01,2013-08-12 16:26:00,
2013-08-12 11:31:00,78.5,66.6,29.94,North,351,0.0,2.0,67,0.00,,---,0.00,VWS V14.01,2013-08-12 16:31:00,
2013-08-12 11:36:00,78.6,66.7,29.94,North,355,0.0,0.0,67,0.00,,---,0.00,VWS V14.01,2013-08-12 16:36:00,
2013-08-12 11:41:00,79.0,66.7,29.94,NNE,28,0.0,1.0,66,0.00,,---,0.00,VWS V14.01,2013-08-12 16:41:00,
2013-08-12 11:51:00,79.6,67.2,29.94,North,355,0.0,0.0,66,0.00,,---,0.00,VWS V14.01,2013-08-12 16:51:00,
2013-08-12 11:56:00,79.9,67.5,29.94,North,355,0.0,0.0,66,0.00,,---,0.00,VWS V14.01,2013-08-12 16:56:00,
2013-08-12 12:06:00,80.7,67.8,29.94,NNW,342,0.0,2.0,65,0.00,,---,0.00,VWS V14.01,2013-08-12 17:06:00,
2013-08-12 12:11:00,81.1,68.7,29.94,NNW,346,0.0,0.0,66,0.00,,---,0.00,VWS V14.01,2013-08-12 17:11:00,
2013-08-12 12:21:00,81.4,68.1,29.94,NNW,331,0.0,0.0,64,0.00,,---,0.00,VWS V14.01,2013-08-12 17:21:00,
2013-08-12 12:26:00,81.4,67.1,29.94,NNW,344,0.0,1.0,62,0.00,,---,0.00,VWS V14.01,2013-08-12 17:26:00,
2013-08-12 12:31:00,81.4,67.1,29.93,North,351,0.0,0.0,62,0.00,,---,0.00,VWS V14.01,2013-08-12 17:31:00,
2013-08-12 12:36:00,81.6,66.9,29.93,North,5,0.0,2.0,61,0.00,,---,0.00,VWS V14.01,2013-08-12 17:36:00,
2013-08-12 12:41:00,81.6,67.3,29.93,NNW,346,0.0,1.0,62,0.00,,---,0.00,VWS V14.01,2013-08-12 17:41:00,
2013-08-12 12:46:00,82.0,67.7,29.93,North,355,0.0,0.0,62,0.00,,---,0.00,VWS V14.01,2013-08-12 17:46:00,
2013-08-12 12:51:00,82.2,66.9,29.93,NNE,15,0.0,0.0,60,0.00,,---,0.00,VWS V14.01,2013-08-12 17:51:00,
2013-08-12 12:56:00,82.2,67.9,29.93,North,5,0.0,1.0,62,0.00,,---,0.00,VWS V14.01,2013-08-12 17:56:00,
2013-08-12 13:01:00,82.4,67.1,29.93,NNW,346,0.0,0.0,60,0.00,,---,0.00,VWS V14.01,2013-08-12 18:01:00,
2013-08-12 13:11:00,83.0,67.2,29.93,North,350,0.0,0.0,59,0.00,,---,0.00,VWS V14.01,2013-08-12 18:11:00,
2013-08-12 13:16:00,83.0,66.7,29.93,NNW,338,0.0,1.0,58,0.00,,---,0.00,VWS V14.01,2013-08-12 18:16:00,
2013-08-12 13:21:00,83.0,66.7,29.93,North,355,0.0,1.0,58,0.00,,---,0.00,VWS V14.01,2013-08-12 18:21:00,
2013-08-12 13:26:00,82.8,66.0,29.93,North,355,0.0,2.0,57,0.00,,---,0.00,VWS V14.01,2013-08-12 18:26:00,
2013-08-12 13:36:00,82.6,65.8,29.93,North,5,0.0,1.0,57,0.00,,---,0.00,VWS V14.01,2013-08-12 18:36:00,
2013-08-12 13:41:00,82.2,65.5,29.92,NNW,342,0.0,1.0,57,0.00,,---,0.00,VWS V14.01,2013-08-12 18:41:00,
2013-08-12 13:46:00,82.2,65.5,29.92,North,355,0.0,1.0,57,0.00,,---,0.00,VWS V14.01,2013-08-12 18:46:00,
2013-08-12 13:51:00,82.4,64.6,29.92,NNE,30,0.0,1.0,55,0.00,,---,0.00,VWS V14.01,2013-08-12 18:51:00,
2013-08-12 14:01:00,82.0,63.7,29.92,North,351,0.0,1.0,54,0.00,,---,0.00,VWS V14.01,2013-08-12 19:01:00,
2013-08-12 14:11:00,82.2,65.0,29.92,North,360,0.0,0.0,56,0.00,,---,0.00,VWS V14.01,2013-08-12 19:11:00,
2013-08-12 14:16:00,82.2,63.4,29.92,NNW,342,0.0,1.0,53,0.00,,---,0.00,VWS V14.01,2013-08-12 19:16:00,
2013-08-12 14:21:00,82.2,63.9,29.92,North,350,0.0,0.0,54,0.00,,---,0.00,VWS V14.01,2013-08-12 19:21:00,
2013-08-12 14:26:00,82.0,62.1,29.92,NNW,346,0.0,0.0,51,0.00,,---,0.00,VWS V14.01,2013-08-12 19:26:00,
2013-08-12 14:31:00,82.0,63.2,29.92,North,5,0.0,1.0,53,0.00,,---,0.00,VWS V14.01,2013-08-12 19:31:00,
2013-08-12 14:36:00,82.2,63.9,29.92,North,360,0.0,1.0,54,0.00,,---,0.00,VWS V14.01,2013-08-12 19:36:00,
2013-08-12 14:46:00,82.4,62.5,29.92,NE,35,0.0,1.0,51,0.00,,---,0.00,VWS V14.01,2013-08-12 19:46:00,
2013-08-12 14:51:00,82.2,61.7,29.92,NW,315,0.0,2.0,50,0.00,,---,0.00,VWS V14.01,2013-08-12 19:51:00,
2013-08-12 15:01:00,82.2,61.7,29.92,North,350,0.0,1.0,50,0.00,,---,0.00,VWS V14.01,2013-08-12 20:01:00,
2013-08-12 15:06:00,82.4,63.0,29.92,NNW,346,0.0,1.0,52,0.00,,---,0.00,VWS V14.01,2013-08-12 20:06:00,
2013-08-12 15:11:00,82.6,60.9,29.92,NE,47,1.0,1.0,48,0.00,,---,0.00,VWS V14.01,2013-08-12 20:11:00,
2013-08-12 15:16:00,82.4,61.9,29.92,NE,40,0.0,1.0,50,0.00,,---,0.00,VWS V14.01,2013-08-12 20:16:00,
2013-08-12 15:26:00,82.4,62.5,29.91,NNW,339,0.0,1.0,51,0.00,,---,0.00,VWS V14.01,2013-08-12 20:26:00,
2013-08-12 15:31:00,82.2,62.8,29.91,NNW,331,0.0,1.0,52,0.00,,---,0.00,VWS V14.01,2013-08-12 20:31:00,
2013-08-12 15:41:00,82.8,62.8,29.91,North,5,0.0,0.0,51,0.00,,---,0.00,VWS V14.01,2013-08-12 20:41:00,
2013-08-12 15:51:00,82.8,63.4,29.91,North,360,0.0,0.0,52,0.00,,---,0.00,VWS V14.01,2013-08-12 20:51:00,
2013-08-12 15:56:00,82.8,63.4,29.91,NNW,344,0.0,0.0,52,0.00,,---,0.00,VWS V14.01,2013-08-12 20:56:00,
2013-08-12 16:01:00,83.0,63.0,29.91,North,355,0.0,2.0,51,0.00,,---,0.00,VWS V14.01,2013-08-12 21:01:00,
2013-08-12 16:06:00,82.8,62.3,29.91,North,360,0.0,1.0,50,0.00,,---,0.00,VWS V14.01,2013-08-12 21:06:00,
2013-08-12 16:11:00,82.6,61.5,29.91,North,355,0.0,0.0,49,0.00,,---,0.00,VWS V14.01,2013-08-12 21:11:00,
2013-08-12 16:21:00,82.2,62.8,29.91,NNW,341,0.0,0.0,52,0.00,,---,0.00,VWS V14.01,2013-08-12 21:21:00,
2013-08-12 16:26:00,82.2,61.7,29.92,North,355,0.0,0.0,50,0.00,,---,0.00,VWS V14.01,2013-08-12 21:26:00,
2013-08-12 16:36:00,80.7,60.9,29.91,North,355,0.0,1.0,51,0.00,,---,0.00,VWS V14.01,2013-08-12 21:36:00,
2013-08-12 16:41:00,80.3,61.6,29.91,North,355,0.0,1.0,53,0.00,,---,0.00,VWS V14.01,2013-08-12 21:41:00,
2013-08-12 16:46:00,80.1,62.0,29.91,North,5,0.0,1.0,54,0.00,,---,0.00,VWS V14.01,2013-08-12 21:46:00,
2013-08-12 16:51:00,79.9,61.3,29.92,North,10,0.0,0.0,53,0.00,,---,0.00,VWS V14.01,2013-08-12 21:51:00,
2013-08-12 16:56:00,80.1,62.5,29.91,North,355,1.0,1.0,55,0.00,,---,0.00,VWS V14.01,2013-08-12 21:56:00,
2013-08-12 17:01:00,80.5,62.3,29.92,North,360,0.0,1.0,54,0.00,,---,0.00,VWS V14.01,2013-08-12 22:01:00,
2013-08-12 17:11:00,80.9,62.2,29.92,North,11,0.0,1.0,53,0.00,,---,0.00,VWS V14.01,2013-08-12 22:11:00,
2013-08-12 17:16:00,80.3,60.5,29.92,North,360,0.0,1.0,51,0.00,,---,0.00,VWS V14.01,2013-08-12 22:16:00,
2013-08-12 17:26:00,79.6,60.4,29.92,North,351,0.0,1.0,52,0.00,,---,0.00,VWS V14.01,2013-08-12 22:26:00,
2013-08-12 17:31:00,79.0,60.4,29.92,NNE,12,0.0,1.0,53,0.00,,---,0.00,VWS V14.01,2013-08-12 22:31:00,
2013-08-12 17:36:00,78.5,60.5,29.92,North,9,0.0,0.0,54,0.00,,---,0.00,VWS V14.01,2013-08-12 22:36:00,
2013-08-12 17:41:00,78.1,60.1,29.92,NNW,346,0.0,0.0,54,0.00,,---,0.00,VWS V14.01,2013-08-12 22:41:00,
2013-08-12 17:46:00,77.7,60.8,29.92,NNE,32,0.0,0.0,56,0.00,,---,0.00,VWS V14.01,2013-08-12 22:46:00,
2013-08-12 17:56:00,77.4,60.5,29.92,North,355,0.0,0.0,56,0.00,,---,0.00,VWS V14.01,2013-08-12 22:56:00,
2013-08-12 18:06:00,76.8,61.4,29.92,North,11,0.0,0.0,59,0.00,,---,0.00,VWS V14.01,2013-08-12 23:06:00,
2013-08-12 18:16:00,76.5,61.1,29.92,NNW,348,0.0,0.0,59,0.00,,---,0.00,VWS V14.01,2013-08-12 23:16:00,
2013-08-12 18:26:00,76.0,61.1,29.92,NNW,346,0.0,0.0,60,0.00,,---,0.00,VWS V14.01,2013-08-12 23:26:00,
2013-08-12 18:31:00,75.8,61.9,29.92,NNW,343,0.0,0.0,62,0.00,,---,0.00,VWS V14.01,2013-08-12 23:31:00,
2013-08-12 18:36:00,75.6,61.2,29.92,North,355,0.0,0.0,61,0.00,,---,0.00,VWS V14.01,2013-08-12 23:36:00,
2013-08-12 18:41:00,75.3,60.9,29.92,North,351,0.0,0.0,61,0.00,,---,0.00,VWS V14.01,2013-08-12 23:41:00,
2013-08-12 18:46:00,75.1,61.2,29.92,North,351,0.0,0.0,62,0.00,,---,0.00,VWS V14.01,2013-08-12 23:46:00,
2013-08-12 18:56:00,74.6,61.2,29.92,North,351,0.0,0.0,63,0.00,,---,0.00,VWS V14.01,2013-08-12 23:56:00,
2013-08-12 19:01:00,74.2,60.8,29.92,North,351,0.0,0.0,63,0.00,,---,0.00,VWS V14.01,2013-08-13 00:01:00,
2013-08-12 19:06:00,74.0,61.1,29.92,NNW,339,0.0,0.0,64,0.00,,---,0.00,VWS V14.01,2013-08-13 00:06:00,
2013-08-12 19:11:00,73.7,60.8,29.92,NNW,341,0.0,0.0,64,0.00,,---,0.00,VWS V14.01,2013-08-13 00:11:00,
2013-08-12 19:21:00,73.0,60.5,29.92,NNW,341,0.0,0.0,65,0.00,,---,0.00,VWS V14.01,2013-08-13 00:21:00,
2013-08-12 19:26:00,72.8,60.8,29.92,NNW,341,0.0,0.0,66,0.00,,---,0.00,VWS V14.01,2013-08-13 00:26:00,
2013-08-12 19:31:00,72.5,60.9,29.92,NNW,341,0.0,0.0,67,0.00,,---,0.00,VWS V14.01,2013-08-13 00:31:00,
2013-08-12 19:36:00,72.1,61.0,29.92,NNW,341,0.0,0.0,68,0.00,,---,0.00,VWS V14.01,2013-08-13 00:36:00,
2013-08-12 19:41:00,71.8,61.5,29.92,NNW,341,0.0,0.0,70,0.00,,---,0.00,VWS V14.01,2013-08-13 00:41:00,
2013-08-12 19:51:00,71.1,60.8,29.92,NNW,341,0.0,0.0,70,0.00,,---,0.00,VWS V14.01,2013-08-13 00:51:00,
2013-08-12 19:56:00,70.8,60.9,29.92,NNW,341,0.0,0.0,71,0.00,,---,0.00,VWS V14.01,2013-08-13 00:56:00,
2013-08-12 20:01:00,70.4,61.0,29.92,NNW,341,0.0,0.0,72,0.00,,---,0.00,VWS V14.01,2013-08-13 01:01:00,
2013-08-12 20:06:00,69.9,60.5,29.91,NNW,341,0.0,0.0,72,0.00,,---,0.00,VWS V14.01,2013-08-13 01:06:00,
2013-08-12 20:11:00,69.4,60.8,29.91,NNW,341,0.0,0.0,74,0.00,,---,0.00,VWS V14.01,2013-08-13 01:11:00,
2013-08-12 20:16:00,69.1,60.8,29.92,NNW,341,0.0,0.0,75,0.00,,---,0.00,VWS V14.01,2013-08-13 01:16:00,
2013-08-12 20:21:00,68.4,60.5,29.92,NNW,341,0.0,0.0,76,0.00,,---,0.00,VWS V14.01,2013-08-13 01:21:00,
2013-08-12 20:31:00,67.4,60.0,29.92,NNW,341,0.0,0.0,77,0.00,,---,0.00,VWS V14.01,2013-08-13 01:31:00,
2013-08-12 20:36:00,66.8,59.7,29.92,NNW,341,0.0,0.0,78,0.00,,---,0.00,VWS V14.01,2013-08-13 01:36:00,
2013-08-12 20:41:00,66.1,59.4,29.92,NNW,341,0.0,0.0,79,0.00,,---,0.00,VWS V14.01,2013-08-13 01:41:00,
2013-08-12 20:46:00,65.6,58.9,29.93,NNW,341,0.0,0.0,79,0.00,,---,0.00,VWS V14.01,2013-08-13 01:46:00,
2013-08-12 20:51:00,65.3,59.0,29.93,NNW,341,0.0,0.0,80,0.00,,---,0.00,VWS V14.01,2013-08-13 01:51:00,
2013-08-12 21:01:00,64.5,58.5,29.93,NNW,341,0.0,0.0,81,0.00,,---,0.00,VWS V14.01,2013-08-13 02:01:00,
2013-08-12 21:06:00,64.2,58.6,29.93,NNW,341,0.0,0.0,82,0.00,,---,0.00,VWS V14.01,2013-08-13 02:06:00,
2013-08-12 21:16:00,63.5,58.2,29.93,NNW,341,0.0,0.0,83,0.00,,---,0.00,VWS V14.01,2013-08-13 02:16:00,
2013-08-12 21:21:00,63.2,58.0,29.94,NNW,341,0.0,0.0,83,0.00,,---,0.00,VWS V14.01,2013-08-13 02:21:00,
2013-08-12 21:26:00,62.9,57.7,29.93,NNW,341,0.0,0.0,83,0.00,,---,0.00,VWS V14.01,2013-08-13 02:26:00,
2013-08-12 21:36:00,62.1,57.2,29.94,NNW,341,0.0,0.0,84,0.00,,---,0.00,VWS V14.01,2013-08-13 02:36:00,
2013-08-12 21:41:00,62.0,57.5,29.94,NNW,341,0.0,0.0,85,0.00,,---,0.00,VWS V14.01,2013-08-13 02:41:00,
2013-08-12 21:51:00,61.3,57.1,29.95,NNW,341,0.0,0.0,86,0.00,,---,0.00,VWS V14.01,2013-08-13 02:51:00,
2013-08-12 21:56:00,61.2,57.0,29.95,NNW,341,0.0,0.0,86,0.00,,---,0.00,VWS V14.01,2013-08-13 02:56:00,
2013-08-12 22:06:00,60.5,56.6,29.95,NNW,341,0.0,0.0,87,0.00,,---,0.00,VWS V14.01,2013-08-13 03:06:00,
2013-08-12 22:16:00,60.1,56.2,29.95,NNW,341,0.0,0.0,87,0.00,,---,0.00,VWS V14.01,2013-08-13 03:16:00,
2013-08-12 22:21:00,59.9,56.0,29.95,NNW,341,0.0,0.0,87,0.00,,---,0.00,VWS V14.01,2013-08-13 03:21:00,
2013-08-12 22:31:00,59.5,55.6,29.95,NNW,341,0.0,0.0,87,0.00,,---,0.00,VWS V14.01,2013-08-13 03:31:00,
2013-08-12 22:36:00,59.3,55.8,29.95,NNW,341,0.0,0.0,88,0.00,,---,0.00,VWS V14.01,2013-08-13 03:36:00,
2013-08-12 22:41:00,59.2,55.7,29.95,NNW,341,0.0,0.0,88,0.00,,---,0.00,VWS V14.01,2013-08-13 03:41:00,
2013-08-12 22:46:00,59.0,55.5,29.95,NNW,341,0.0,0.0,88,0.00,,---,0.00,VWS V14.01,2013-08-13 03:46:00,
2013-08-12 22:56:00,58.7,55.2,29.95,NNW,341,0.0,0.0,88,0.00,,---,0.00,VWS V14.01,2013-08-13 03:56:00,
2013-08-12 23:01:00,58.4,54.9,29.95,NNW,341,0.0,0.0,88,0.00,,---,0.00,VWS V14.01,2013-08-13 04:01:00,
2013-08-12 23:06:00,58.3,55.1,29.95,NNW,341,0.0,0.0,89,0.00,,---,0.00,VWS V14.01,2013-08-13 04:06:00,
2013-08-12 23:11:00,58.0,54.8,29.95,NNW,341,0.0,0.0,89,0.00,,---,0.00,VWS V14.01,2013-08-13 04:11:00,
2013-08-12 23:16:00,57.8,54.6,29.95,NNW,341,0.0,0.0,89,0.00,,---,0.00,VWS V14.01,2013-08-13 04:16:00,
2013-08-12 23:26:00,57.5,54.3,29.96,NNW,341,0.0,0.0,89,0.00,,---,0.00,VWS V14.01,2013-08-13 04:26:00,
2013-08-12 23:31:00,57.3,54.1,29.96,NNW,341,0.0,0.0,89,0.00,,---,0.00,VWS V14.01,2013-08-13 04:31:00,
2013-08-12 23:36:00,57.3,54.4,29.96,NNW,341,0.0,0.0,90,0.00,,---,0.00,VWS V14.01,2013-08-13 04:36:00,
2013-08-12 23:41:00,57.2,54.3,29.96,NNW,341,0.0,0.0,90,0.00,,---,0.00,VWS V14.01,2013-08-13 04:41:00,
2013-08-12 23:46:00,57.0,54.1,29.96,NNW,341,0.0,0.0,90,0.00,,---,0.00,VWS V14.01,2013-08-13 04:46:00,
2013-08-12 23:51:00,56.9,54.0,29.96,NNW,341,0.0,0.0,90,0.00,,---,0.00,VWS V14.01,2013-08-13 04:51:00,
2013-08-12 23:56:00,56.7,53.8,29.96,NNW,341,0.0,0.0,90,0.00,,---,0.00,VWS V14.01,2013-08-13 04:56:00,